sensor_id;sensor_type;location;lat;lon;timestamp;temperature;humidity
8824;DHT22;4448;50.904;4.694;2023-12-29T00:00:09;11.40;99.90
8824;DHT22;4448;50.904;4.694;2023-12-29T00:02:35;11.40;99.90
8824;DHT22;4448;50.904;4.694;2023-12-29T00:05:00;11.40;99.90
8824;DHT22;4448;50.904;4.694;2023-12-29T00:07:26;11.40;99.90
8824;DHT22;4448;50.904;4.694;2023-12-29T00:09:52;11.40;99.90
8824;DHT22;4448;50.904;4.694;2023-12-29T00:12:17;11.40;99.90
8824;DHT22;4448;50.904;4.694;2023-12-29T00:14:43;11.40;99.90
8824;DHT22;4448;50.904;4.694;2023-12-29T00:17:10;11.40;99.90
8824;DHT22;4448;50.904;4.694;2023-12-29T00:19:35;11.40;99.90
8824;DHT22;4448;50.904;4.694;2023-12-29T00:22:01;11.40;99.90
8824;DHT22;4448;50.904;4.694;2023-12-29T00:24:29;11.40;99.90
8824;DHT22;4448;50.904;4.694;2023-12-29T00:26:57;11.40;99.90
8824;DHT22;4448;50.904;4.694;2023-12-29T00:29:24;11.40;99.90
8824;DHT22;4448;50.904;4.694;2023-12-29T00:31:49;11.40;99.90
8824;DHT22;4448;50.904;4.694;2023-12-29T00:34:15;11.40;99.90
8824;DHT22;4448;50.904;4.694;2023-12-29T00:36:41;11.50;99.90
8824;DHT22;4448;50.904;4.694;2023-12-29T00:39:06;11.50;99.90
8824;DHT22;4448;50.904;4.694;2023-12-29T00:41:32;11.50;99.90
8824;DHT22;4448;50.904;4.694;2023-12-29T00:43:58;11.50;99.90
8824;DHT22;4448;50.904;4.694;2023-12-29T00:46:24;11.50;99.90
8824;DHT22;4448;50.904;4.694;2023-12-29T00:48:50;11.50;99.90
8824;DHT22;4448;50.904;4.694;2023-12-29T00:51:15;11.50;99.90
8824;DHT22;4448;50.904;4.694;2023-12-29T00:53:41;11.50;99.90
8824;DHT22;4448;50.904;4.694;2023-12-29T00:56:11;11.50;99.90
8824;DHT22;4448;50.904;4.694;2023-12-29T00:58:37;11.50;99.90
8824;DHT22;4448;50.904;4.694;2023-12-29T01:01:03;11.50;99.90
8824;DHT22;4448;50.904;4.694;2023-12-29T01:03:28;11.40;99.90
8824;DHT22;4448;50.904;4.694;2023-12-29T01:05:54;11.40;99.90
8824;DHT22;4448;50.904;4.694;2023-12-29T01:08:20;11.40;99.90
8824;DHT22;4448;50.904;4.694;2023-12-29T01:10:46;11.40;99.90
8824;DHT22;4448;50.904;4.694;2023-12-29T01:13:11;11.50;99.90
8824;DHT22;4448;50.904;4.694;2023-12-29T01:15:37;11.50;99.90
8824;DHT22;4448;50.904;4.694;2023-12-29T01:18:03;11.40;99.90
8824;DHT22;4448;50.904;4.694;2023-12-29T01:20:29;11.40;99.90
8824;DHT22;4448;50.904;4.694;2023-12-29T01:22:54;11.40;99.90
8824;DHT22;4448;50.904;4.694;2023-12-29T01:25:20;11.40;99.90
8824;DHT22;4448;50.904;4.694;2023-12-29T01:27:46;11.40;99.90
8824;DHT22;4448;50.904;4.694;2023-12-29T01:30:11;11.40;99.90
8824;DHT22;4448;50.904;4.694;2023-12-29T01:32:37;11.40;99.90
8824;DHT22;4448;50.904;4.694;2023-12-29T01:35:03;11.50;99.90
8824;DHT22;4448;50.904;4.694;2023-12-29T01:37:29;11.50;99.90
8824;DHT22;4448;50.904;4.694;2023-12-29T01:39:55;11.50;99.90
8824;DHT22;4448;50.904;4.694;2023-12-29T01:42:20;11.50;99.90
8824;DHT22;4448;50.904;4.694;2023-12-29T01:44:47;11.50;99.90
8824;DHT22;4448;50.904;4.694;2023-12-29T01:47:18;11.50;99.90
8824;DHT22;4448;50.904;4.694;2023-12-29T01:49:45;11.40;99.90
8824;DHT22;4448;50.904;4.694;2023-12-29T01:52:11;11.50;99.90
8824;DHT22;4448;50.904;4.694;2023-12-29T01:54:38;11.50;99.90
8824;DHT22;4448;50.904;4.694;2023-12-29T01:57:09;11.50;99.90
8824;DHT22;4448;50.904;4.694;2023-12-29T01:59:35;11.50;99.90
8824;DHT22;4448;50.904;4.694;2023-12-29T02:02:01;11.50;99.90
8824;DHT22;4448;50.904;4.694;2023-12-29T02:04:29;11.50;99.90
8824;DHT22;4448;50.904;4.694;2023-12-29T02:06:58;11.50;99.90
8824;DHT22;4448;50.904;4.694;2023-12-29T02:09:26;11.50;99.90
8824;DHT22;4448;50.904;4.694;2023-12-29T02:11:55;11.50;99.90
8824;DHT22;4448;50.904;4.694;2023-12-29T02:14:29;11.50;99.90
8824;DHT22;4448;50.904;4.694;2023-12-29T02:17:14;11.50;99.90
8824;DHT22;4448;50.904;4.694;2023-12-29T02:19:47;11.50;99.90
8824;DHT22;4448;50.904;4.694;2023-12-29T02:22:15;11.50;99.90
8824;DHT22;4448;50.904;4.694;2023-12-29T02:24:48;11.50;99.90
8824;DHT22;4448;50.904;4.694;2023-12-29T02:30:54;11.50;99.90
8824;DHT22;4448;50.904;4.694;2023-12-29T02:33:27;11.50;99.90
8824;DHT22;4448;50.904;4.694;2023-12-29T02:35:56;11.50;99.90
8824;DHT22;4448;50.904;4.694;2023-12-29T02:38:31;11.50;99.90
8824;DHT22;4448;50.904;4.694;2023-12-29T02:40:58;11.50;99.90
8824;DHT22;4448;50.904;4.694;2023-12-29T02:43:24;11.50;99.90
8824;DHT22;4448;50.904;4.694;2023-12-29T02:45:55;11.50;99.90
8824;DHT22;4448;50.904;4.694;2023-12-29T02:48:21;11.50;99.90
8824;DHT22;4448;50.904;4.694;2023-12-29T02:50:47;11.50;99.90
8824;DHT22;4448;50.904;4.694;2023-12-29T02:53:12;11.50;99.90
8824;DHT22;4448;50.904;4.694;2023-12-29T02:55:43;11.50;99.90
8824;DHT22;4448;50.904;4.694;2023-12-29T02:58:09;11.50;99.90
8824;DHT22;4448;50.904;4.694;2023-12-29T03:00:40;11.50;99.90
8824;DHT22;4448;50.904;4.694;2023-12-29T03:03:15;11.50;99.90
8824;DHT22;4448;50.904;4.694;2023-12-29T03:05:40;11.50;99.90
8824;DHT22;4448;50.904;4.694;2023-12-29T03:08:06;11.50;99.90
8824;DHT22;4448;50.904;4.694;2023-12-29T03:10:32;11.50;99.90
8824;DHT22;4448;50.904;4.694;2023-12-29T03:13:00;11.50;99.90
8824;DHT22;4448;50.904;4.694;2023-12-29T03:15:28;11.50;99.90
8824;DHT22;4448;50.904;4.694;2023-12-29T03:17:56;11.50;99.90
8824;DHT22;4448;50.904;4.694;2023-12-29T03:20:22;11.50;99.90
8824;DHT22;4448;50.904;4.694;2023-12-29T03:22:48;11.50;99.90
8824;DHT22;4448;50.904;4.694;2023-12-29T03:25:14;11.50;99.90
8824;DHT22;4448;50.904;4.694;2023-12-29T03:27:39;11.50;99.90
8824;DHT22;4448;50.904;4.694;2023-12-29T03:30:06;11.50;99.90
8824;DHT22;4448;50.904;4.694;2023-12-29T03:32:31;11.50;99.90
8824;DHT22;4448;50.904;4.694;2023-12-29T03:34:57;11.50;99.90
8824;DHT22;4448;50.904;4.694;2023-12-29T03:37:23;11.50;99.90
8824;DHT22;4448;50.904;4.694;2023-12-29T03:39:48;11.50;99.90
8824;DHT22;4448;50.904;4.694;2023-12-29T03:42:14;11.60;99.90
8824;DHT22;4448;50.904;4.694;2023-12-29T03:44:40;11.50;99.90
8824;DHT22;4448;50.904;4.694;2023-12-29T03:47:05;11.50;99.90
8824;DHT22;4448;50.904;4.694;2023-12-29T03:49:31;11.50;99.90
8824;DHT22;4448;50.904;4.694;2023-12-29T03:51:57;11.50;99.90
8824;DHT22;4448;50.904;4.694;2023-12-29T03:54:22;11.50;99.90
8824;DHT22;4448;50.904;4.694;2023-12-29T03:56:48;11.50;99.90
8824;DHT22;4448;50.904;4.694;2023-12-29T03:59:14;11.50;99.90
8824;DHT22;4448;50.904;4.694;2023-12-29T04:01:42;11.40;99.90
8824;DHT22;4448;50.904;4.694;2023-12-29T04:04:11;11.40;99.90
8824;DHT22;4448;50.904;4.694;2023-12-29T04:06:37;11.40;99.90
8824;DHT22;4448;50.904;4.694;2023-12-29T04:09:02;11.40;99.90
8824;DHT22;4448;50.904;4.694;2023-12-29T04:11:28;11.40;99.90
8824;DHT22;4448;50.904;4.694;2023-12-29T04:13:54;11.40;99.90
8824;DHT22;4448;50.904;4.694;2023-12-29T04:16:20;11.40;99.90
8824;DHT22;4448;50.904;4.694;2023-12-29T04:18:45;11.40;99.90
8824;DHT22;4448;50.904;4.694;2023-12-29T04:21:15;11.40;99.90
8824;DHT22;4448;50.904;4.694;2023-12-29T04:23:41;11.40;99.90
8824;DHT22;4448;50.904;4.694;2023-12-29T04:26:08;11.30;99.90
8824;DHT22;4448;50.904;4.694;2023-12-29T04:28:33;11.30;99.90
8824;DHT22;4448;50.904;4.694;2023-12-29T04:30:59;11.30;99.90
8824;DHT22;4448;50.904;4.694;2023-12-29T04:33:25;11.30;99.90
8824;DHT22;4448;50.904;4.694;2023-12-29T04:35:51;11.30;99.90
8824;DHT22;4448;50.904;4.694;2023-12-29T04:38:17;11.30;99.90
8824;DHT22;4448;50.904;4.694;2023-12-29T04:40:46;11.30;99.90
8824;DHT22;4448;50.904;4.694;2023-12-29T04:43:13;11.30;99.90
8824;DHT22;4448;50.904;4.694;2023-12-29T04:45:38;11.30;99.90
8824;DHT22;4448;50.904;4.694;2023-12-29T04:48:04;11.30;99.90
8824;DHT22;4448;50.904;4.694;2023-12-29T04:50:30;11.30;99.90
8824;DHT22;4448;50.904;4.694;2023-12-29T04:52:56;11.30;99.90
8824;DHT22;4448;50.904;4.694;2023-12-29T04:55:21;11.30;99.90
8824;DHT22;4448;50.904;4.694;2023-12-29T04:57:47;11.30;99.90
8824;DHT22;4448;50.904;4.694;2023-12-29T05:00:13;11.30;99.90
8824;DHT22;4448;50.904;4.694;2023-12-29T05:02:39;11.30;99.90
8824;DHT22;4448;50.904;4.694;2023-12-29T05:05:05;11.30;99.90
8824;DHT22;4448;50.904;4.694;2023-12-29T05:07:31;11.30;99.90
8824;DHT22;4448;50.904;4.694;2023-12-29T05:09:57;11.30;99.90
8824;DHT22;4448;50.904;4.694;2023-12-29T05:12:22;11.20;99.90
8824;DHT22;4448;50.904;4.694;2023-12-29T05:14:48;11.30;99.90
8824;DHT22;4448;50.904;4.694;2023-12-29T05:17:14;11.20;99.90
8824;DHT22;4448;50.904;4.694;2023-12-29T05:19:40;11.20;99.90
8824;DHT22;4448;50.904;4.694;2023-12-29T05:22:05;11.20;99.90
8824;DHT22;4448;50.904;4.694;2023-12-29T05:24:31;11.20;99.90
8824;DHT22;4448;50.904;4.694;2023-12-29T05:26:57;11.20;99.90
8824;DHT22;4448;50.904;4.694;2023-12-29T05:29:23;11.30;99.90
8824;DHT22;4448;50.904;4.694;2023-12-29T05:31:49;11.30;99.90
8824;DHT22;4448;50.904;4.694;2023-12-29T05:34:15;11.30;99.90
8824;DHT22;4448;50.904;4.694;2023-12-29T05:36:41;11.30;99.90
8824;DHT22;4448;50.904;4.694;2023-12-29T05:39:07;11.30;99.90
8824;DHT22;4448;50.904;4.694;2023-12-29T05:41:33;11.30;99.90
8824;DHT22;4448;50.904;4.694;2023-12-29T05:43:59;11.30;99.90
8824;DHT22;4448;50.904;4.694;2023-12-29T05:46:26;11.30;99.90
8824;DHT22;4448;50.904;4.694;2023-12-29T05:48:52;11.30;99.90
8824;DHT22;4448;50.904;4.694;2023-12-29T05:51:17;11.30;99.90
8824;DHT22;4448;50.904;4.694;2023-12-29T05:53:43;11.30;99.90
8824;DHT22;4448;50.904;4.694;2023-12-29T05:56:12;11.30;99.90
8824;DHT22;4448;50.904;4.694;2023-12-29T05:58:39;11.30;99.90
8824;DHT22;4448;50.904;4.694;2023-12-29T06:01:05;11.40;99.90
8824;DHT22;4448;50.904;4.694;2023-12-29T06:03:31;11.40;99.90
8824;DHT22;4448;50.904;4.694;2023-12-29T06:05:56;11.40;99.90
8824;DHT22;4448;50.904;4.694;2023-12-29T06:08:22;11.40;99.90
8824;DHT22;4448;50.904;4.694;2023-12-29T06:10:48;11.40;99.90
8824;DHT22;4448;50.904;4.694;2023-12-29T06:13:13;11.40;99.90
8824;DHT22;4448;50.904;4.694;2023-12-29T06:15:40;11.30;99.90
8824;DHT22;4448;50.904;4.694;2023-12-29T06:18:06;11.30;99.90
8824;DHT22;4448;50.904;4.694;2023-12-29T06:20:31;11.30;99.90
8824;DHT22;4448;50.904;4.694;2023-12-29T06:22:57;11.20;99.90
8824;DHT22;4448;50.904;4.694;2023-12-29T06:25:23;11.20;99.90
8824;DHT22;4448;50.904;4.694;2023-12-29T06:27:48;11.20;99.90
8824;DHT22;4448;50.904;4.694;2023-12-29T06:30:15;11.20;99.90
8824;DHT22;4448;50.904;4.694;2023-12-29T06:32:41;11.10;99.90
8824;DHT22;4448;50.904;4.694;2023-12-29T06:35:07;11.10;99.90
8824;DHT22;4448;50.904;4.694;2023-12-29T06:37:36;11.10;99.90
8824;DHT22;4448;50.904;4.694;2023-12-29T06:40:03;11.10;99.90
8824;DHT22;4448;50.904;4.694;2023-12-29T06:42:29;11.00;99.90
8824;DHT22;4448;50.904;4.694;2023-12-29T06:44:55;11.00;99.90
8824;DHT22;4448;50.904;4.694;2023-12-29T06:47:20;11.00;99.90
8824;DHT22;4448;50.904;4.694;2023-12-29T06:49:46;11.00;99.90
8824;DHT22;4448;50.904;4.694;2023-12-29T06:52:12;11.00;99.90
8824;DHT22;4448;50.904;4.694;2023-12-29T06:54:37;11.00;99.90
8824;DHT22;4448;50.904;4.694;2023-12-29T06:57:03;11.00;99.90
8824;DHT22;4448;50.904;4.694;2023-12-29T06:59:29;11.00;99.90
8824;DHT22;4448;50.904;4.694;2023-12-29T07:01:54;11.00;99.90
8824;DHT22;4448;50.904;4.694;2023-12-29T07:04:20;11.00;99.90
8824;DHT22;4448;50.904;4.694;2023-12-29T07:06:46;11.00;99.90
8824;DHT22;4448;50.904;4.694;2023-12-29T07:09:11;11.00;99.90
8824;DHT22;4448;50.904;4.694;2023-12-29T07:11:37;11.00;99.90
8824;DHT22;4448;50.904;4.694;2023-12-29T07:14:03;10.90;99.90
8824;DHT22;4448;50.904;4.694;2023-12-29T07:16:29;10.90;99.90
8824;DHT22;4448;50.904;4.694;2023-12-29T07:18:54;10.90;99.90
8824;DHT22;4448;50.904;4.694;2023-12-29T07:21:20;10.90;99.90
8824;DHT22;4448;50.904;4.694;2023-12-29T07:23:46;10.90;99.90
8824;DHT22;4448;50.904;4.694;2023-12-29T07:26:12;10.90;99.90
8824;DHT22;4448;50.904;4.694;2023-12-29T07:28:37;10.90;99.90
8824;DHT22;4448;50.904;4.694;2023-12-29T07:31:03;10.90;99.90
8824;DHT22;4448;50.904;4.694;2023-12-29T07:33:30;10.90;99.90
8824;DHT22;4448;50.904;4.694;2023-12-29T07:35:55;10.90;99.90
8824;DHT22;4448;50.904;4.694;2023-12-29T07:38:21;10.90;99.90
8824;DHT22;4448;50.904;4.694;2023-12-29T07:40:47;10.90;99.90
8824;DHT22;4448;50.904;4.694;2023-12-29T07:43:15;10.90;99.90
8824;DHT22;4448;50.904;4.694;2023-12-29T07:45:41;10.90;99.90
8824;DHT22;4448;50.904;4.694;2023-12-29T07:48:08;10.90;99.90
8824;DHT22;4448;50.904;4.694;2023-12-29T07:50:34;10.90;99.90
8824;DHT22;4448;50.904;4.694;2023-12-29T07:53:00;10.90;99.90
8824;DHT22;4448;50.904;4.694;2023-12-29T07:55:29;10.90;99.90
8824;DHT22;4448;50.904;4.694;2023-12-29T07:57:55;10.90;99.90
8824;DHT22;4448;50.904;4.694;2023-12-29T08:00:21;10.90;99.90
8824;DHT22;4448;50.904;4.694;2023-12-29T08:02:47;10.90;99.90
8824;DHT22;4448;50.904;4.694;2023-12-29T08:05:13;10.90;99.90
8824;DHT22;4448;50.904;4.694;2023-12-29T08:07:41;10.90;99.90
8824;DHT22;4448;50.904;4.694;2023-12-29T08:10:07;10.90;99.90
8824;DHT22;4448;50.904;4.694;2023-12-29T08:12:33;10.90;99.90
8824;DHT22;4448;50.904;4.694;2023-12-29T08:15:02;10.90;99.90
8824;DHT22;4448;50.904;4.694;2023-12-29T08:17:28;10.90;99.90
8824;DHT22;4448;50.904;4.694;2023-12-29T08:19:54;10.90;99.90
8824;DHT22;4448;50.904;4.694;2023-12-29T08:22:20;10.90;99.90
8824;DHT22;4448;50.904;4.694;2023-12-29T08:24:46;10.90;99.90
8824;DHT22;4448;50.904;4.694;2023-12-29T08:27:12;10.90;99.90
8824;DHT22;4448;50.904;4.694;2023-12-29T08:29:38;11.00;99.90
8824;DHT22;4448;50.904;4.694;2023-12-29T08:32:04;10.90;99.90
8824;DHT22;4448;50.904;4.694;2023-12-29T08:34:30;11.00;99.90
8824;DHT22;4448;50.904;4.694;2023-12-29T08:36:56;11.00;99.90
8824;DHT22;4448;50.904;4.694;2023-12-29T08:39:22;11.00;99.90
8824;DHT22;4448;50.904;4.694;2023-12-29T08:41:48;11.00;99.90
8824;DHT22;4448;50.904;4.694;2023-12-29T08:44:17;11.00;99.90
8824;DHT22;4448;50.904;4.694;2023-12-29T08:46:43;11.00;99.90
8824;DHT22;4448;50.904;4.694;2023-12-29T08:49:08;11.00;99.90
8824;DHT22;4448;50.904;4.694;2023-12-29T08:51:34;11.00;99.90
8824;DHT22;4448;50.904;4.694;2023-12-29T08:54:00;11.00;99.90
8824;DHT22;4448;50.904;4.694;2023-12-29T08:56:25;11.00;99.90
8824;DHT22;4448;50.904;4.694;2023-12-29T08:58:51;11.00;99.90
8824;DHT22;4448;50.904;4.694;2023-12-29T09:01:18;11.00;99.90
8824;DHT22;4448;50.904;4.694;2023-12-29T09:03:44;11.00;99.90
8824;DHT22;4448;50.904;4.694;2023-12-29T09:06:10;11.00;99.90
8824;DHT22;4448;50.904;4.694;2023-12-29T09:08:36;11.00;99.90
8824;DHT22;4448;50.904;4.694;2023-12-29T09:11:02;11.00;99.90
8824;DHT22;4448;50.904;4.694;2023-12-29T09:13:28;11.00;99.90
8824;DHT22;4448;50.904;4.694;2023-12-29T09:15:57;11.00;99.90
8824;DHT22;4448;50.904;4.694;2023-12-29T09:18:22;11.00;99.90
8824;DHT22;4448;50.904;4.694;2023-12-29T09:20:51;11.00;99.90
8824;DHT22;4448;50.904;4.694;2023-12-29T09:23:17;11.10;99.90
8824;DHT22;4448;50.904;4.694;2023-12-29T09:25:43;11.10;99.90
8824;DHT22;4448;50.904;4.694;2023-12-29T09:28:08;11.10;99.90
8824;DHT22;4448;50.904;4.694;2023-12-29T09:30:34;11.10;99.90
8824;DHT22;4448;50.904;4.694;2023-12-29T09:33:00;11.10;99.90
8824;DHT22;4448;50.904;4.694;2023-12-29T09:35:26;11.10;99.90
8824;DHT22;4448;50.904;4.694;2023-12-29T09:37:51;11.20;99.90
8824;DHT22;4448;50.904;4.694;2023-12-29T09:40:17;11.10;99.90
8824;DHT22;4448;50.904;4.694;2023-12-29T09:42:44;11.20;99.90
8824;DHT22;4448;50.904;4.694;2023-12-29T09:45:13;11.20;99.90
8824;DHT22;4448;50.904;4.694;2023-12-29T09:47:40;11.20;99.90
8824;DHT22;4448;50.904;4.694;2023-12-29T09:50:16;11.20;99.90
8824;DHT22;4448;50.904;4.694;2023-12-29T09:52:43;11.20;99.90
8824;DHT22;4448;50.904;4.694;2023-12-29T09:55:09;11.20;99.90
8824;DHT22;4448;50.904;4.694;2023-12-29T09:57:38;11.20;99.90
8824;DHT22;4448;50.904;4.694;2023-12-29T10:00:05;11.20;99.90
8824;DHT22;4448;50.904;4.694;2023-12-29T10:02:34;11.30;99.90
8824;DHT22;4448;50.904;4.694;2023-12-29T10:05:03;11.30;99.90
8824;DHT22;4448;50.904;4.694;2023-12-29T10:07:36;11.30;99.90
8824;DHT22;4448;50.904;4.694;2023-12-29T10:10:06;11.30;99.90
8824;DHT22;4448;50.904;4.694;2023-12-29T10:12:36;11.30;99.90
8824;DHT22;4448;50.904;4.694;2023-12-29T10:20:21;11.30;99.90
8824;DHT22;4448;50.904;4.694;2023-12-29T10:22:58;11.30;99.90
8824;DHT22;4448;50.904;4.694;2023-12-29T10:25:29;11.30;99.90
8824;DHT22;4448;50.904;4.694;2023-12-29T10:27:56;11.30;99.90
8824;DHT22;4448;50.904;4.694;2023-12-29T10:30:22;11.40;99.90
8824;DHT22;4448;50.904;4.694;2023-12-29T10:32:52;11.40;99.90
8824;DHT22;4448;50.904;4.694;2023-12-29T10:35:18;11.40;99.90
8824;DHT22;4448;50.904;4.694;2023-12-29T10:37:45;11.40;99.90
8824;DHT22;4448;50.904;4.694;2023-12-29T10:40:17;11.40;99.90
8824;DHT22;4448;50.904;4.694;2023-12-29T10:42:56;11.40;99.90
8824;DHT22;4448;50.904;4.694;2023-12-29T10:45:23;11.50;99.90
8824;DHT22;4448;50.904;4.694;2023-12-29T10:47:50;11.50;99.90
8824;DHT22;4448;50.904;4.694;2023-12-29T10:50:16;11.50;99.90
8824;DHT22;4448;50.904;4.694;2023-12-29T10:52:42;11.50;99.90
8824;DHT22;4448;50.904;4.694;2023-12-29T10:55:11;11.60;99.90
8824;DHT22;4448;50.904;4.694;2023-12-29T10:57:37;11.60;99.90
8824;DHT22;4448;50.904;4.694;2023-12-29T11:00:05;11.60;99.90
8824;DHT22;4448;50.904;4.694;2023-12-29T11:02:32;11.50;99.90
8824;DHT22;4448;50.904;4.694;2023-12-29T11:05:16;11.50;99.90
8824;DHT22;4448;50.904;4.694;2023-12-29T11:07:50;11.50;99.90
8824;DHT22;4448;50.904;4.694;2023-12-29T11:10:20;11.50;99.90
8824;DHT22;4448;50.904;4.694;2023-12-29T11:12:47;11.50;99.90
8824;DHT22;4448;50.904;4.694;2023-12-29T11:15:14;11.50;99.90
8824;DHT22;4448;50.904;4.694;2023-12-29T11:17:42;11.50;99.90
8824;DHT22;4448;50.904;4.694;2023-12-29T11:20:17;11.50;99.90
8824;DHT22;4448;50.904;4.694;2023-12-29T11:22:45;11.50;99.90
8824;DHT22;4448;50.904;4.694;2023-12-29T11:25:12;11.50;99.90
8824;DHT22;4448;50.904;4.694;2023-12-29T11:27:38;11.50;99.90
8824;DHT22;4448;50.904;4.694;2023-12-29T11:30:04;11.50;99.90
8824;DHT22;4448;50.904;4.694;2023-12-29T11:32:57;11.60;99.90
8824;DHT22;4448;50.904;4.694;2023-12-29T11:35:57;11.60;99.90
8824;DHT22;4448;50.904;4.694;2023-12-29T11:41:40;11.60;99.90
8824;DHT22;4448;50.904;4.694;2023-12-29T11:44:03;11.60;99.90
8824;DHT22;4448;50.904;4.694;2023-12-29T11:46:36;11.60;99.90
8824;DHT22;4448;50.904;4.694;2023-12-29T11:49:02;11.50;99.90
8824;DHT22;4448;50.904;4.694;2023-12-29T11:51:52;11.50;99.90
8824;DHT22;4448;50.904;4.694;2023-12-29T11:54:25;11.50;99.90
8824;DHT22;4448;50.904;4.694;2023-12-29T11:56:52;11.50;99.90
8824;DHT22;4448;50.904;4.694;2023-12-29T11:59:22;11.50;99.90
8824;DHT22;4448;50.904;4.694;2023-12-29T12:01:55;11.50;99.90
8824;DHT22;4448;50.904;4.694;2023-12-29T12:07:08;11.50;99.90
8824;DHT22;4448;50.904;4.694;2023-12-29T12:09:34;11.50;99.90
8824;DHT22;4448;50.904;4.694;2023-12-29T12:12:02;11.50;99.90
8824;DHT22;4448;50.904;4.694;2023-12-29T12:14:50;11.50;99.90
8824;DHT22;4448;50.904;4.694;2023-12-29T12:17:32;11.50;99.90
8824;DHT22;4448;50.904;4.694;2023-12-29T12:20:08;11.50;99.90
8824;DHT22;4448;50.904;4.694;2023-12-29T12:22:35;11.50;99.90
8824;DHT22;4448;50.904;4.694;2023-12-29T12:25:02;11.50;99.90
8824;DHT22;4448;50.904;4.694;2023-12-29T12:27:30;11.40;99.90
8824;DHT22;4448;50.904;4.694;2023-12-29T12:29:57;11.40;99.90
8824;DHT22;4448;50.904;4.694;2023-12-29T12:32:29;11.50;99.90
8824;DHT22;4448;50.904;4.694;2023-12-29T12:34:58;11.50;99.90
8824;DHT22;4448;50.904;4.694;2023-12-29T12:37:26;11.50;99.90
8824;DHT22;4448;50.904;4.694;2023-12-29T12:39:52;11.40;99.90
8824;DHT22;4448;50.904;4.694;2023-12-29T12:42:22;11.50;99.90
8824;DHT22;4448;50.904;4.694;2023-12-29T12:44:49;11.40;99.90
8824;DHT22;4448;50.904;4.694;2023-12-29T12:47:32;11.40;99.90
8824;DHT22;4448;50.904;4.694;2023-12-29T12:50:00;11.40;99.90
8824;DHT22;4448;50.904;4.694;2023-12-29T12:52:30;11.40;99.90
8824;DHT22;4448;50.904;4.694;2023-12-29T12:54:56;11.40;99.90
8824;DHT22;4448;50.904;4.694;2023-12-29T12:57:22;11.40;99.90
8824;DHT22;4448;50.904;4.694;2023-12-29T12:59:49;11.40;99.90
8824;DHT22;4448;50.904;4.694;2023-12-29T13:02:16;11.40;99.90
8824;DHT22;4448;50.904;4.694;2023-12-29T13:04:43;11.40;99.90
8824;DHT22;4448;50.904;4.694;2023-12-29T13:07:09;11.40;99.90
8824;DHT22;4448;50.904;4.694;2023-12-29T13:09:36;11.40;99.90
8824;DHT22;4448;50.904;4.694;2023-12-29T13:12:12;11.40;99.90
8824;DHT22;4448;50.904;4.694;2023-12-29T13:14:39;11.40;99.90
8824;DHT22;4448;50.904;4.694;2023-12-29T13:17:08;11.40;99.90
8824;DHT22;4448;50.904;4.694;2023-12-29T13:19:36;11.40;99.90
8824;DHT22;4448;50.904;4.694;2023-12-29T13:22:02;11.40;99.90
8824;DHT22;4448;50.904;4.694;2023-12-29T13:24:30;11.40;99.90
8824;DHT22;4448;50.904;4.694;2023-12-29T13:27:07;11.40;99.90
8824;DHT22;4448;50.904;4.694;2023-12-29T13:29:35;11.30;99.90
8824;DHT22;4448;50.904;4.694;2023-12-29T13:32:11;11.40;99.90
8824;DHT22;4448;50.904;4.694;2023-12-29T13:35:04;11.40;99.90
8824;DHT22;4448;50.904;4.694;2023-12-29T13:37:37;11.40;99.90
8824;DHT22;4448;50.904;4.694;2023-12-29T13:40:35;11.40;99.90
8824;DHT22;4448;50.904;4.694;2023-12-29T13:43:03;11.40;99.90
8824;DHT22;4448;50.904;4.694;2023-12-29T13:45:32;11.40;99.90
8824;DHT22;4448;50.904;4.694;2023-12-29T13:47:59;11.40;99.90
8824;DHT22;4448;50.904;4.694;2023-12-29T13:50:26;11.40;99.90
8824;DHT22;4448;50.904;4.694;2023-12-29T13:52:51;11.40;99.90
8824;DHT22;4448;50.904;4.694;2023-12-29T13:55:22;11.40;99.90
8824;DHT22;4448;50.904;4.694;2023-12-29T13:57:48;11.40;99.90
8824;DHT22;4448;50.904;4.694;2023-12-29T14:00:21;11.40;99.90
8824;DHT22;4448;50.904;4.694;2023-12-29T14:08:22;11.40;99.90
8824;DHT22;4448;50.904;4.694;2023-12-29T14:10:48;11.40;99.90
8824;DHT22;4448;50.904;4.694;2023-12-29T14:13:16;11.40;99.90
8824;DHT22;4448;50.904;4.694;2023-12-29T14:15:43;11.40;99.90
8824;DHT22;4448;50.904;4.694;2023-12-29T14:20:38;11.40;99.90
8824;DHT22;4448;50.904;4.694;2023-12-29T14:23:04;11.40;99.90
8824;DHT22;4448;50.904;4.694;2023-12-29T14:25:37;11.40;99.90
8824;DHT22;4448;50.904;4.694;2023-12-29T14:28:23;11.40;99.90
8824;DHT22;4448;50.904;4.694;2023-12-29T14:30:49;11.40;99.90
8824;DHT22;4448;50.904;4.694;2023-12-29T14:33:16;11.30;99.90
8824;DHT22;4448;50.904;4.694;2023-12-29T14:35:42;11.30;99.90
8824;DHT22;4448;50.904;4.694;2023-12-29T14:38:07;11.30;99.90
8824;DHT22;4448;50.904;4.694;2023-12-29T14:40:33;11.40;99.90
8824;DHT22;4448;50.904;4.694;2023-12-29T14:43:00;11.30;99.90
8824;DHT22;4448;50.904;4.694;2023-12-29T14:45:26;11.30;99.90
8824;DHT22;4448;50.904;4.694;2023-12-29T14:47:56;11.30;99.90
8824;DHT22;4448;50.904;4.694;2023-12-29T14:50:21;11.30;99.90
8824;DHT22;4448;50.904;4.694;2023-12-29T14:52:47;11.30;99.90
8824;DHT22;4448;50.904;4.694;2023-12-29T14:55:13;11.30;99.90
8824;DHT22;4448;50.904;4.694;2023-12-29T14:57:38;11.30;99.90
8824;DHT22;4448;50.904;4.694;2023-12-29T15:00:05;11.30;99.90
8824;DHT22;4448;50.904;4.694;2023-12-29T15:02:31;11.30;99.90
8824;DHT22;4448;50.904;4.694;2023-12-29T15:04:56;11.30;99.90
8824;DHT22;4448;50.904;4.694;2023-12-29T15:07:22;11.30;99.90
8824;DHT22;4448;50.904;4.694;2023-12-29T15:09:54;11.30;99.90
8824;DHT22;4448;50.904;4.694;2023-12-29T15:12:20;11.30;99.90
8824;DHT22;4448;50.904;4.694;2023-12-29T15:14:46;11.30;99.90
8824;DHT22;4448;50.904;4.694;2023-12-29T15:17:11;11.30;99.90
8824;DHT22;4448;50.904;4.694;2023-12-29T15:19:37;11.30;99.90
8824;DHT22;4448;50.904;4.694;2023-12-29T15:22:03;11.30;99.90
8824;DHT22;4448;50.904;4.694;2023-12-29T15:24:28;11.30;99.90
8824;DHT22;4448;50.904;4.694;2023-12-29T15:26:54;11.30;99.90
8824;DHT22;4448;50.904;4.694;2023-12-29T15:29:20;11.30;99.90
8824;DHT22;4448;50.904;4.694;2023-12-29T15:31:45;11.30;99.90
8824;DHT22;4448;50.904;4.694;2023-12-29T15:34:12;11.20;99.90
8824;DHT22;4448;50.904;4.694;2023-12-29T15:36:38;11.20;99.90
8824;DHT22;4448;50.904;4.694;2023-12-29T15:39:04;11.20;99.90
8824;DHT22;4448;50.904;4.694;2023-12-29T15:41:33;11.20;99.90
8824;DHT22;4448;50.904;4.694;2023-12-29T15:43:59;11.20;99.90
8824;DHT22;4448;50.904;4.694;2023-12-29T15:46:25;11.20;99.90
8824;DHT22;4448;50.904;4.694;2023-12-29T15:48:51;11.20;99.90
8824;DHT22;4448;50.904;4.694;2023-12-29T15:51:17;11.20;99.90
8824;DHT22;4448;50.904;4.694;2023-12-29T15:53:43;11.20;99.90
8824;DHT22;4448;50.904;4.694;2023-12-29T15:56:17;11.20;99.90
8824;DHT22;4448;50.904;4.694;2023-12-29T15:58:45;11.10;99.90
8824;DHT22;4448;50.904;4.694;2023-12-29T16:01:19;11.10;99.90
8824;DHT22;4448;50.904;4.694;2023-12-29T16:03:44;11.10;99.90
8824;DHT22;4448;50.904;4.694;2023-12-29T16:06:18;11.10;99.90
8824;DHT22;4448;50.904;4.694;2023-12-29T16:08:44;11.10;99.90
8824;DHT22;4448;50.904;4.694;2023-12-29T16:11:18;11.10;99.90
8824;DHT22;4448;50.904;4.694;2023-12-29T16:13:45;11.10;99.90
8824;DHT22;4448;50.904;4.694;2023-12-29T16:16:10;11.10;99.90
8824;DHT22;4448;50.904;4.694;2023-12-29T16:18:37;11.10;99.90
8824;DHT22;4448;50.904;4.694;2023-12-29T16:21:03;11.10;99.90
8824;DHT22;4448;50.904;4.694;2023-12-29T16:23:29;11.00;99.90
8824;DHT22;4448;50.904;4.694;2023-12-29T16:25:55;11.00;99.90